sensor_id;sensor_type;location;lat;lon;timestamp;P1;durP1;ratioP1;P2;durP2;ratioP2
61527;SDS011;47395;42.032;-8.634;2023-11-21T00:01:37;14.20;;;2.88;;
61527;SDS011;47395;42.032;-8.634;2023-11-21T00:03:38;9.07;;;2.65;;
61527;SDS011;47395;42.032;-8.634;2023-11-21T00:05:39;9.98;;;3.55;;
61527;SDS011;47395;42.032;-8.634;2023-11-21T00:07:41;10.35;;;3.05;;
61527;SDS011;47395;42.032;-8.634;2023-11-21T00:09:43;10.93;;;3.50;;
61527;SDS011;47395;42.032;-8.634;2023-11-21T00:11:44;5.13;;;2.63;;
61527;SDS011;47395;42.032;-8.634;2023-11-21T00:13:45;10.45;;;3.15;;
61527;SDS011;47395;42.032;-8.634;2023-11-21T00:15:46;11.90;;;3.30;;
61527;SDS011;47395;42.032;-8.634;2023-11-21T00:17:47;10.55;;;3.63;;
61527;SDS011;47395;42.032;-8.634;2023-11-21T00:19:48;14.82;;;3.75;;
61527;SDS011;47395;42.032;-8.634;2023-11-21T00:21:49;12.68;;;3.30;;
61527;SDS011;47395;42.032;-8.634;2023-11-21T00:23:51;11.07;;;3.38;;
61527;SDS011;47395;42.032;-8.634;2023-11-21T00:25:51;10.25;;;3.13;;
61527;SDS011;47395;42.032;-8.634;2023-11-21T00:27:53;13.43;;;3.45;;
61527;SDS011;47395;42.032;-8.634;2023-11-21T00:29:54;10.95;;;3.25;;
61527;SDS011;47395;42.032;-8.634;2023-11-21T00:31:55;9.82;;;3.58;;
61527;SDS011;47395;42.032;-8.634;2023-11-21T00:33:57;13.10;;;3.08;;
61527;SDS011;47395;42.032;-8.634;2023-11-21T00:35:58;9.82;;;2.70;;
61527;SDS011;47395;42.032;-8.634;2023-11-21T00:37:59;18.60;;;3.72;;
61527;SDS011;47395;42.032;-8.634;2023-11-21T00:40:00;13.35;;;3.00;;
61527;SDS011;47395;42.032;-8.634;2023-11-21T00:42:06;11.93;;;3.28;;
61527;SDS011;47395;42.032;-8.634;2023-11-21T00:44:07;12.32;;;3.58;;
61527;SDS011;47395;42.032;-8.634;2023-11-21T00:46:11;7.75;;;2.72;;
61527;SDS011;47395;42.032;-8.634;2023-11-21T00:48:13;14.07;;;3.50;;
61527;SDS011;47395;42.032;-8.634;2023-11-21T00:50:14;15.57;;;3.45;;
61527;SDS011;47395;42.032;-8.634;2023-11-21T00:52:15;8.98;;;2.80;;
61527;SDS011;47395;42.032;-8.634;2023-11-21T00:54:17;15.20;;;4.28;;
61527;SDS011;47395;42.032;-8.634;2023-11-21T00:56:18;11.38;;;3.30;;
61527;SDS011;47395;42.032;-8.634;2023-11-21T00:58:19;13.85;;;3.35;;
61527;SDS011;47395;42.032;-8.634;2023-11-21T01:00:20;8.43;;;2.80;;
61527;SDS011;47395;42.032;-8.634;2023-11-21T01:02:21;13.30;;;3.65;;
61527;SDS011;47395;42.032;-8.634;2023-11-21T01:04:22;12.57;;;2.90;;
61527;SDS011;47395;42.032;-8.634;2023-11-21T01:06:24;7.25;;;2.88;;
61527;SDS011;47395;42.032;-8.634;2023-11-21T01:08:25;16.10;;;3.40;;
61527;SDS011;47395;42.032;-8.634;2023-11-21T01:10:26;28.15;;;3.78;;
61527;SDS011;47395;42.032;-8.634;2023-11-21T01:12:28;20.30;;;3.97;;
61527;SDS011;47395;42.032;-8.634;2023-11-21T01:14:29;14.15;;;3.35;;
61527;SDS011;47395;42.032;-8.634;2023-11-21T01:16:31;11.75;;;3.60;;
61527;SDS011;47395;42.032;-8.634;2023-11-21T01:18:35;16.10;;;3.03;;
61527;SDS011;47395;42.032;-8.634;2023-11-21T01:20:36;15.10;;;3.47;;
61527;SDS011;47395;42.032;-8.634;2023-11-21T01:22:38;18.83;;;3.75;;
61527;SDS011;47395;42.032;-8.634;2023-11-21T01:24:39;9.60;;;2.80;;
61527;SDS011;47395;42.032;-8.634;2023-11-21T01:26:40;16.33;;;3.75;;
61527;SDS011;47395;42.032;-8.634;2023-11-21T01:28:41;17.38;;;3.53;;
61527;SDS011;47395;42.032;-8.634;2023-11-21T01:30:42;23.52;;;3.80;;
61527;SDS011;47395;42.032;-8.634;2023-11-21T01:32:43;19.73;;;3.72;;
61527;SDS011;47395;42.032;-8.634;2023-11-21T01:34:44;9.40;;;3.20;;
61527;SDS011;47395;42.032;-8.634;2023-11-21T01:36:45;18.20;;;3.28;;
61527;SDS011;47395;42.032;-8.634;2023-11-21T01:38:47;18.40;;;3.55;;
61527;SDS011;47395;42.032;-8.634;2023-11-21T01:40:49;18.25;;;3.65;;
61527;SDS011;47395;42.032;-8.634;2023-11-21T01:42:49;8.13;;;2.95;;
61527;SDS011;47395;42.032;-8.634;2023-11-21T01:44:50;13.30;;;3.33;;
61527;SDS011;47395;42.032;-8.634;2023-11-21T01:46:52;12.82;;;3.50;;
61527;SDS011;47395;42.032;-8.634;2023-11-21T01:48:54;17.85;;;3.42;;
61527;SDS011;47395;42.032;-8.634;2023-11-21T01:50:54;15.90;;;3.85;;
61527;SDS011;47395;42.032;-8.634;2023-11-21T01:52:56;15.48;;;3.40;;
61527;SDS011;47395;42.032;-8.634;2023-11-21T01:54:57;9.85;;;3.42;;
61527;SDS011;47395;42.032;-8.634;2023-11-21T01:57:00;14.20;;;3.15;;
61527;SDS011;47395;42.032;-8.634;2023-11-21T01:59:07;13.25;;;3.15;;
61527;SDS011;47395;42.032;-8.634;2023-11-21T02:01:07;12.80;;;3.10;;
61527;SDS011;47395;42.032;-8.634;2023-11-21T02:03:11;9.65;;;3.40;;
61527;SDS011;47395;42.032;-8.634;2023-11-21T02:05:13;9.90;;;3.10;;
61527;SDS011;47395;42.032;-8.634;2023-11-21T02:07:18;16.00;;;3.38;;
61527;SDS011;47395;42.032;-8.634;2023-11-21T02:09:23;10.32;;;2.97;;
61527;SDS011;47395;42.032;-8.634;2023-11-21T02:11:26;11.20;;;3.20;;
61527;SDS011;47395;42.032;-8.634;2023-11-21T02:13:27;14.30;;;2.75;;
61527;SDS011;47395;42.032;-8.634;2023-11-21T02:15:28;7.72;;;2.85;;
61527;SDS011;47395;42.032;-8.634;2023-11-21T02:17:29;17.60;;;3.75;;
61527;SDS011;47395;42.032;-8.634;2023-11-21T02:19:32;7.82;;;2.65;;
61527;SDS011;47395;42.032;-8.634;2023-11-21T02:21:34;9.68;;;2.83;;
61527;SDS011;47395;42.032;-8.634;2023-11-21T02:23:36;15.00;;;3.25;;
61527;SDS011;47395;42.032;-8.634;2023-11-21T02:25:38;13.02;;;2.63;;
61527;SDS011;47395;42.032;-8.634;2023-11-21T02:27:39;10.98;;;2.72;;
61527;SDS011;47395;42.032;-8.634;2023-11-21T02:29:41;8.18;;;2.75;;
61527;SDS011;47395;42.032;-8.634;2023-11-21T02:31:43;5.95;;;2.40;;
61527;SDS011;47395;42.032;-8.634;2023-11-21T02:33:48;9.10;;;2.90;;
61527;SDS011;47395;42.032;-8.634;2023-11-21T02:35:49;14.02;;;4.20;;
61527;SDS011;47395;42.032;-8.634;2023-11-21T02:37:49;7.70;;;3.47;;
61527;SDS011;47395;42.032;-8.634;2023-11-21T02:39:50;16.88;;;4.20;;
61527;SDS011;47395;42.032;-8.634;2023-11-21T02:41:52;8.45;;;3.60;;
61527;SDS011;47395;42.032;-8.634;2023-11-21T02:43:53;13.98;;;4.05;;
61527;SDS011;47395;42.032;-8.634;2023-11-21T02:45:55;11.30;;;3.90;;
61527;SDS011;47395;42.032;-8.634;2023-11-21T02:47:58;12.38;;;3.42;;
61527;SDS011;47395;42.032;-8.634;2023-11-21T02:49:59;20.02;;;3.95;;
61527;SDS011;47395;42.032;-8.634;2023-11-21T02:52:00;5.57;;;3.95;;
61527;SDS011;47395;42.032;-8.634;2023-11-21T02:54:01;12.85;;;3.88;;
61527;SDS011;47395;42.032;-8.634;2023-11-21T02:56:08;19.48;;;4.47;;
61527;SDS011;47395;42.032;-8.634;2023-11-21T02:58:09;10.77;;;4.18;;
61527;SDS011;47395;42.032;-8.634;2023-11-21T03:00:10;9.63;;;3.50;;
61527;SDS011;47395;42.032;-8.634;2023-11-21T03:02:13;8.15;;;3.10;;
61527;SDS011;47395;42.032;-8.634;2023-11-21T03:04:14;11.82;;;3.25;;
61527;SDS011;47395;42.032;-8.634;2023-11-21T03:06:18;12.57;;;3.38;;
61527;SDS011;47395;42.032;-8.634;2023-11-21T03:08:20;12.82;;;2.97;;
61527;SDS011;47395;42.032;-8.634;2023-11-21T03:10:21;11.98;;;3.75;;
61527;SDS011;47395;42.032;-8.634;2023-11-21T03:12:23;11.30;;;3.58;;
61527;SDS011;47395;42.032;-8.634;2023-11-21T03:14:24;9.85;;;4.03;;
61527;SDS011;47395;42.032;-8.634;2023-11-21T03:16:25;10.15;;;4.57;;
61527;SDS011;47395;42.032;-8.634;2023-11-21T03:18:26;12.60;;;3.78;;
61527;SDS011;47395;42.032;-8.634;2023-11-21T03:20:29;11.10;;;2.67;;
61527;SDS011;47395;42.032;-8.634;2023-11-21T03:22:30;9.90;;;3.33;;
61527;SDS011;47395;42.032;-8.634;2023-11-21T03:24:32;14.05;;;3.20;;
61527;SDS011;47395;42.032;-8.634;2023-11-21T03:26:33;12.13;;;2.65;;
61527;SDS011;47395;42.032;-8.634;2023-11-21T03:28:34;9.57;;;2.83;;
61527;SDS011;47395;42.032;-8.634;2023-11-21T03:30:36;13.50;;;3.13;;
61527;SDS011;47395;42.032;-8.634;2023-11-21T03:32:38;15.18;;;3.10;;
61527;SDS011;47395;42.032;-8.634;2023-11-21T03:34:52;8.95;;;3.10;;
61527;SDS011;47395;42.032;-8.634;2023-11-21T03:36:56;13.05;;;3.65;;
61527;SDS011;47395;42.032;-8.634;2023-11-21T03:38:57;9.63;;;3.85;;
61527;SDS011;47395;42.032;-8.634;2023-11-21T03:40:58;12.70;;;3.40;;
61527;SDS011;47395;42.032;-8.634;2023-11-21T03:42:59;10.10;;;3.05;;
61527;SDS011;47395;42.032;-8.634;2023-11-21T03:44:59;13.93;;;3.17;;
61527;SDS011;47395;42.032;-8.634;2023-11-21T03:47:00;10.77;;;3.10;;
61527;SDS011;47395;42.032;-8.634;2023-11-21T03:49:01;20.85;;;3.80;;
61527;SDS011;47395;42.032;-8.634;2023-11-21T03:51:02;16.02;;;3.60;;
61527;SDS011;47395;42.032;-8.634;2023-11-21T03:53:03;11.48;;;3.13;;
61527;SDS011;47395;42.032;-8.634;2023-11-21T03:55:04;12.68;;;2.70;;
61527;SDS011;47395;42.032;-8.634;2023-11-21T03:57:05;10.73;;;2.92;;
61527;SDS011;47395;42.032;-8.634;2023-11-21T03:59:06;15.85;;;3.08;;
61527;SDS011;47395;42.032;-8.634;2023-11-21T04:01:06;13.02;;;2.70;;
61527;SDS011;47395;42.032;-8.634;2023-11-21T04:03:07;7.53;;;2.78;;
61527;SDS011;47395;42.032;-8.634;2023-11-21T04:05:08;9.75;;;2.85;;
61527;SDS011;47395;42.032;-8.634;2023-11-21T04:07:09;9.73;;;2.80;;
61527;SDS011;47395;42.032;-8.634;2023-11-21T04:09:11;16.60;;;3.42;;
61527;SDS011;47395;42.032;-8.634;2023-11-21T04:11:12;15.20;;;3.17;;
61527;SDS011;47395;42.032;-8.634;2023-11-21T04:13:13;10.23;;;2.67;;
61527;SDS011;47395;42.032;-8.634;2023-11-21T04:15:14;21.25;;;3.00;;
61527;SDS011;47395;42.032;-8.634;2023-11-21T04:17:17;15.07;;;3.63;;
61527;SDS011;47395;42.032;-8.634;2023-11-21T04:19:19;12.95;;;2.70;;
61527;SDS011;47395;42.032;-8.634;2023-11-21T04:21:20;9.95;;;3.00;;
61527;SDS011;47395;42.032;-8.634;2023-11-21T04:23:21;12.27;;;3.05;;
61527;SDS011;47395;42.032;-8.634;2023-11-21T04:25:22;6.05;;;2.75;;
61527;SDS011;47395;42.032;-8.634;2023-11-21T04:27:23;10.23;;;3.60;;
61527;SDS011;47395;42.032;-8.634;2023-11-21T04:29:24;13.63;;;3.60;;
61527;SDS011;47395;42.032;-8.634;2023-11-21T04:31:25;12.13;;;3.60;;
61527;SDS011;47395;42.032;-8.634;2023-11-21T04:33:25;7.45;;;3.10;;
61527;SDS011;47395;42.032;-8.634;2023-11-21T04:35:27;7.30;;;3.22;;
61527;SDS011;47395;42.032;-8.634;2023-11-21T04:37:27;12.38;;;4.00;;
61527;SDS011;47395;42.032;-8.634;2023-11-21T04:39:28;13.38;;;3.80;;
61527;SDS011;47395;42.032;-8.634;2023-11-21T04:41:29;9.00;;;3.28;;
61527;SDS011;47395;42.032;-8.634;2023-11-21T04:43:31;10.35;;;3.38;;
61527;SDS011;47395;42.032;-8.634;2023-11-21T04:45:32;12.80;;;3.83;;
61527;SDS011;47395;42.032;-8.634;2023-11-21T04:47:33;10.32;;;3.22;;
61527;SDS011;47395;42.032;-8.634;2023-11-21T04:49:34;13.38;;;3.60;;
61527;SDS011;47395;42.032;-8.634;2023-11-21T04:51:34;12.82;;;3.55;;
61527;SDS011;47395;42.032;-8.634;2023-11-21T04:53:36;15.65;;;4.25;;
61527;SDS011;47395;42.032;-8.634;2023-11-21T04:55:37;13.00;;;3.88;;
61527;SDS011;47395;42.032;-8.634;2023-11-21T04:57:38;7.55;;;3.42;;
61527;SDS011;47395;42.032;-8.634;2023-11-21T04:59:41;12.35;;;3.10;;
61527;SDS011;47395;42.032;-8.634;2023-11-21T05:03:52;9.80;;;2.90;;
61527;SDS011;47395;42.032;-8.634;2023-11-21T05:05:53;14.00;;;3.53;;
61527;SDS011;47395;42.032;-8.634;2023-11-21T05:07:54;11.43;;;3.45;;
61527;SDS011;47395;42.032;-8.634;2023-11-21T05:09:55;10.75;;;3.45;;
61527;SDS011;47395;42.032;-8.634;2023-11-21T05:11:56;10.18;;;2.63;;
61527;SDS011;47395;42.032;-8.634;2023-11-21T05:13:57;16.17;;;3.00;;
61527;SDS011;47395;42.032;-8.634;2023-11-21T05:15:59;9.05;;;3.15;;
61527;SDS011;47395;42.032;-8.634;2023-11-21T05:17:59;18.40;;;3.22;;
61527;SDS011;47395;42.032;-8.634;2023-11-21T05:20:00;15.38;;;3.15;;
61527;SDS011;47395;42.032;-8.634;2023-11-21T05:22:03;8.02;;;3.45;;
61527;SDS011;47395;42.032;-8.634;2023-11-21T05:24:05;10.82;;;3.20;;
61527;SDS011;47395;42.032;-8.634;2023-11-21T05:26:06;9.43;;;3.13;;
61527;SDS011;47395;42.032;-8.634;2023-11-21T05:28:07;12.27;;;2.97;;
61527;SDS011;47395;42.032;-8.634;2023-11-21T05:30:08;15.75;;;4.07;;
61527;SDS011;47395;42.032;-8.634;2023-11-21T05:32:12;18.25;;;3.88;;
61527;SDS011;47395;42.032;-8.634;2023-11-21T05:34:13;10.32;;;3.53;;
61527;SDS011;47395;42.032;-8.634;2023-11-21T05:36:14;18.38;;;4.80;;
61527;SDS011;47395;42.032;-8.634;2023-11-21T05:38:15;14.88;;;3.50;;
61527;SDS011;47395;42.032;-8.634;2023-11-21T05:40:18;16.92;;;4.40;;
61527;SDS011;47395;42.032;-8.634;2023-11-21T05:42:19;21.98;;;5.15;;
61527;SDS011;47395;42.032;-8.634;2023-11-21T05:44:21;8.80;;;3.15;;
61527;SDS011;47395;42.032;-8.634;2023-11-21T05:46:22;8.52;;;3.05;;
61527;SDS011;47395;42.032;-8.634;2023-11-21T05:48:22;15.85;;;3.58;;
61527;SDS011;47395;42.032;-8.634;2023-11-21T05:50:23;8.57;;;3.40;;
61527;SDS011;47395;42.032;-8.634;2023-11-21T05:52:24;13.23;;;3.70;;
61527;SDS011;47395;42.032;-8.634;2023-11-21T05:54:25;14.27;;;3.70;;
61527;SDS011;47395;42.032;-8.634;2023-11-21T05:56:26;18.48;;;3.78;;
61527;SDS011;47395;42.032;-8.634;2023-11-21T05:58:27;9.45;;;3.60;;
61527;SDS011;47395;42.032;-8.634;2023-11-21T06:00:28;10.45;;;3.15;;
61527;SDS011;47395;42.032;-8.634;2023-11-21T06:02:29;13.55;;;3.70;;
61527;SDS011;47395;42.032;-8.634;2023-11-21T06:04:29;14.85;;;3.67;;
61527;SDS011;47395;42.032;-8.634;2023-11-21T06:06:31;16.45;;;3.85;;
61527;SDS011;47395;42.032;-8.634;2023-11-21T06:08:32;13.30;;;3.65;;
61527;SDS011;47395;42.032;-8.634;2023-11-21T06:10:33;21.70;;;4.10;;
61527;SDS011;47395;42.032;-8.634;2023-11-21T06:12:34;9.15;;;3.38;;
61527;SDS011;47395;42.032;-8.634;2023-11-21T06:14:36;17.40;;;4.25;;
61527;SDS011;47395;42.032;-8.634;2023-11-21T06:16:37;10.57;;;3.30;;
61527;SDS011;47395;42.032;-8.634;2023-11-21T06:18:37;21.52;;;3.63;;
61527;SDS011;47395;42.032;-8.634;2023-11-21T06:20:38;17.98;;;3.40;;
61527;SDS011;47395;42.032;-8.634;2023-11-21T06:22:40;24.30;;;3.78;;
61527;SDS011;47395;42.032;-8.634;2023-11-21T06:24:45;16.95;;;3.38;;
61527;SDS011;47395;42.032;-8.634;2023-11-21T06:26:46;12.05;;;3.08;;
61527;SDS011;47395;42.032;-8.634;2023-11-21T06:28:48;9.80;;;3.00;;
61527;SDS011;47395;42.032;-8.634;2023-11-21T06:30:51;14.98;;;3.08;;
61527;SDS011;47395;42.032;-8.634;2023-11-21T06:32:53;8.32;;;3.20;;
61527;SDS011;47395;42.032;-8.634;2023-11-21T06:34:55;15.13;;;2.67;;
61527;SDS011;47395;42.032;-8.634;2023-11-21T06:36:59;15.13;;;3.40;;
61527;SDS011;47395;42.032;-8.634;2023-11-21T06:39:00;18.30;;;3.83;;
61527;SDS011;47395;42.032;-8.634;2023-11-21T06:41:01;16.92;;;2.90;;
61527;SDS011;47395;42.032;-8.634;2023-11-21T06:43:02;10.88;;;2.88;;
61527;SDS011;47395;42.032;-8.634;2023-11-21T06:45:07;12.15;;;3.85;;
61527;SDS011;47395;42.032;-8.634;2023-11-21T06:47:11;14.93;;;3.45;;
61527;SDS011;47395;42.032;-8.634;2023-11-21T06:49:12;7.38;;;3.13;;
61527;SDS011;47395;42.032;-8.634;2023-11-21T06:51:13;12.70;;;3.45;;
61527;SDS011;47395;42.032;-8.634;2023-11-21T06:53:14;16.25;;;3.53;;
61527;SDS011;47395;42.032;-8.634;2023-11-21T06:55:15;13.30;;;2.90;;
61527;SDS011;47395;42.032;-8.634;2023-11-21T06:57:16;18.25;;;3.38;;
61527;SDS011;47395;42.032;-8.634;2023-11-21T06:59:17;11.20;;;3.63;;
61527;SDS011;47395;42.032;-8.634;2023-11-21T07:01:18;13.95;;;3.30;;
61527;SDS011;47395;42.032;-8.634;2023-11-21T07:03:19;12.93;;;3.20;;
61527;SDS011;47395;42.032;-8.634;2023-11-21T07:05:23;9.80;;;3.03;;
61527;SDS011;47395;42.032;-8.634;2023-11-21T07:07:23;13.15;;;3.40;;
61527;SDS011;47395;42.032;-8.634;2023-11-21T07:09:24;10.98;;;3.42;;
61527;SDS011;47395;42.032;-8.634;2023-11-21T07:11:26;10.82;;;3.28;;
61527;SDS011;47395;42.032;-8.634;2023-11-21T07:13:27;9.02;;;2.95;;
61527;SDS011;47395;42.032;-8.634;2023-11-21T07:15:28;16.02;;;3.13;;
61527;SDS011;47395;42.032;-8.634;2023-11-21T07:17:28;7.82;;;2.78;;
61527;SDS011;47395;42.032;-8.634;2023-11-21T07:19:29;14.48;;;3.13;;
61527;SDS011;47395;42.032;-8.634;2023-11-21T07:21:30;13.32;;;3.05;;
61527;SDS011;47395;42.032;-8.634;2023-11-21T07:23:31;17.48;;;3.40;;
61527;SDS011;47395;42.032;-8.634;2023-11-21T07:25:32;10.13;;;3.75;;
61527;SDS011;47395;42.032;-8.634;2023-11-21T07:27:33;10.73;;;3.03;;
61527;SDS011;47395;42.032;-8.634;2023-11-21T07:29:36;9.57;;;3.33;;
61527;SDS011;47395;42.032;-8.634;2023-11-21T07:31:37;12.88;;;3.40;;
61527;SDS011;47395;42.032;-8.634;2023-11-21T07:33:38;7.40;;;3.13;;
61527;SDS011;47395;42.032;-8.634;2023-11-21T07:35:39;12.13;;;3.20;;
61527;SDS011;47395;42.032;-8.634;2023-11-21T07:37:40;15.95;;;5.80;;
61527;SDS011;47395;42.032;-8.634;2023-11-21T07:39:40;23.83;;;5.32;;
61527;SDS011;47395;42.032;-8.634;2023-11-21T07:41:42;21.98;;;5.47;;
61527;SDS011;47395;42.032;-8.634;2023-11-21T07:43:48;19.67;;;6.93;;
61527;SDS011;47395;42.032;-8.634;2023-11-21T07:45:50;16.05;;;7.07;;
61527;SDS011;47395;42.032;-8.634;2023-11-21T07:47:51;14.50;;;7.40;;
61527;SDS011;47395;42.032;-8.634;2023-11-21T07:49:53;18.50;;;5.65;;
61527;SDS011;47395;42.032;-8.634;2023-11-21T07:51:56;15.23;;;5.32;;
61527;SDS011;47395;42.032;-8.634;2023-11-21T07:53:56;13.25;;;4.07;;
61527;SDS011;47395;42.032;-8.634;2023-11-21T07:55:58;10.75;;;3.47;;
61527;SDS011;47395;42.032;-8.634;2023-11-21T07:58:02;12.18;;;3.42;;
61527;SDS011;47395;42.032;-8.634;2023-11-21T08:00:04;10.57;;;3.95;;
61527;SDS011;47395;42.032;-8.634;2023-11-21T08:02:12;12.75;;;4.18;;
61527;SDS011;47395;42.032;-8.634;2023-11-21T08:04:13;15.05;;;4.93;;
61527;SDS011;47395;42.032;-8.634;2023-11-21T08:06:14;15.23;;;5.82;;
61527;SDS011;47395;42.032;-8.634;2023-11-21T08:08:15;10.85;;;5.22;;
61527;SDS011;47395;42.032;-8.634;2023-11-21T08:10:18;23.08;;;5.50;;
61527;SDS011;47395;42.032;-8.634;2023-11-21T08:12:20;12.35;;;4.47;;
61527;SDS011;47395;42.032;-8.634;2023-11-21T08:14:21;12.52;;;4.68;;
61527;SDS011;47395;42.032;-8.634;2023-11-21T08:16:25;10.85;;;3.55;;
61527;SDS011;47395;42.032;-8.634;2023-11-21T08:18:26;13.93;;;6.10;;
61527;SDS011;47395;42.032;-8.634;2023-11-21T08:20:27;14.93;;;5.22;;
61527;SDS011;47395;42.032;-8.634;2023-11-21T08:22:28;15.30;;;4.85;;
61527;SDS011;47395;42.032;-8.634;2023-11-21T08:24:29;11.57;;;4.43;;
61527;SDS011;47395;42.032;-8.634;2023-11-21T08:26:30;4.88;;;3.92;;
61527;SDS011;47395;42.032;-8.634;2023-11-21T08:28:31;8.00;;;4.05;;
61527;SDS011;47395;42.032;-8.634;2023-11-21T08:30:32;16.45;;;5.35;;
61527;SDS011;47395;42.032;-8.634;2023-11-21T08:32:33;9.77;;;4.50;;
61527;SDS011;47395;42.032;-8.634;2023-11-21T08:34:34;8.38;;;4.10;;
61527;SDS011;47395;42.032;-8.634;2023-11-21T08:36:35;14.32;;;3.97;;
61527;SDS011;47395;42.032;-8.634;2023-11-21T08:38:41;9.48;;;4.07;;
61527;SDS011;47395;42.032;-8.634;2023-11-21T08:40:42;9.15;;;3.85;;
61527;SDS011;47395;42.032;-8.634;2023-11-21T08:42:45;9.32;;;3.47;;
61527;SDS011;47395;42.032;-8.634;2023-11-21T08:44:52;9.90;;;2.90;;
61527;SDS011;47395;42.032;-8.634;2023-11-21T08:46:56;16.63;;;3.60;;
61527;SDS011;47395;42.032;-8.634;2023-11-21T08:51:03;11.98;;;3.38;;
61527;SDS011;47395;42.032;-8.634;2023-11-21T08:53:05;10.50;;;3.78;;
61527;SDS011;47395;42.032;-8.634;2023-11-21T08:55:06;16.05;;;3.10;;
61527;SDS011;47395;42.032;-8.634;2023-11-21T08:57:12;9.43;;;3.50;;
61527;SDS011;47395;42.032;-8.634;2023-11-21T08:59:13;8.27;;;2.80;;
61527;SDS011;47395;42.032;-8.634;2023-11-21T09:01:17;10.40;;;3.05;;
61527;SDS011;47395;42.032;-8.634;2023-11-21T09:03:18;10.52;;;3.42;;
61527;SDS011;47395;42.032;-8.634;2023-11-21T09:05:18;6.13;;;3.10;;
61527;SDS011;47395;42.032;-8.634;2023-11-21T09:07:22;6.45;;;3.13;;
61527;SDS011;47395;42.032;-8.634;2023-11-21T09:09:23;8.07;;;3.65;;
61527;SDS011;47395;42.032;-8.634;2023-11-21T09:11:25;7.25;;;3.60;;
61527;SDS011;47395;42.032;-8.634;2023-11-21T09:13:26;5.82;;;3.17;;
61527;SDS011;47395;42.032;-8.634;2023-11-21T09:15:27;11.13;;;3.65;;
61527;SDS011;47395;42.032;-8.634;2023-11-21T09:17:28;9.20;;;3.15;;
61527;SDS011;47395;42.032;-8.634;2023-11-21T09:19:32;4.65;;;2.53;;
61527;SDS011;47395;42.032;-8.634;2023-11-21T09:21:38;4.93;;;2.47;;
61527;SDS011;47395;42.032;-8.634;2023-11-21T09:23:42;8.20;;;2.60;;
61527;SDS011;47395;42.032;-8.634;2023-11-21T09:25:46;5.53;;;2.70;;
61527;SDS011;47395;42.032;-8.634;2023-11-21T09:27:50;5.30;;;3.33;;
61527;SDS011;47395;42.032;-8.634;2023-11-21T09:29:50;8.75;;;4.18;;
61527;SDS011;47395;42.032;-8.634;2023-11-21T09:31:52;6.03;;;4.03;;
61527;SDS011;47395;42.032;-8.634;2023-11-21T09:33:55;13.07;;;5.75;;
61527;SDS011;47395;42.032;-8.634;2023-11-21T09:35:56;16.55;;;11.65;;
61527;SDS011;47395;42.032;-8.634;2023-11-21T09:37:59;15.95;;;11.52;;
61527;SDS011;47395;42.032;-8.634;2023-11-21T09:40:02;20.02;;;12.85;;
61527;SDS011;47395;42.032;-8.634;2023-11-21T09:44:20;12.73;;;6.60;;
61527;SDS011;47395;42.032;-8.634;2023-11-21T09:46:28;4.10;;;3.47;;
61527;SDS011;47395;42.032;-8.634;2023-11-21T09:48:31;7.93;;;3.90;;
61527;SDS011;47395;42.032;-8.634;2023-11-21T09:50:34;6.75;;;4.20;;
61527;SDS011;47395;42.032;-8.634;2023-11-21T09:53:22;8.30;;;4.53;;
61527;SDS011;47395;42.032;-8.634;2023-11-21T09:55:21;5.80;;;3.85;;
61527;SDS011;47395;42.032;-8.634;2023-11-21T09:57:23;10.40;;;3.67;;
61527;SDS011;47395;42.032;-8.634;2023-11-21T09:59:25;9.48;;;3.78;;
61527;SDS011;47395;42.032;-8.634;2023-11-21T10:01:30;10.15;;;3.95;;
61527;SDS011;47395;42.032;-8.634;2023-11-21T10:03:35;8.45;;;3.95;;
61527;SDS011;47395;42.032;-8.634;2023-11-21T10:05:39;5.45;;;3.22;;
61527;SDS011;47395;42.032;-8.634;2023-11-21T10:07:45;9.40;;;4.10;;
61527;SDS011;47395;42.032;-8.634;2023-11-21T10:09:47;10.70;;;4.28;;
61527;SDS011;47395;42.032;-8.634;2023-11-21T10:11:51;8.10;;;3.95;;
61527;SDS011;47395;42.032;-8.634;2023-11-21T10:13:54;7.22;;;2.83;;
61527;SDS011;47395;42.032;-8.634;2023-11-21T10:15:57;9.45;;;3.42;;
61527;SDS011;47395;42.032;-8.634;2023-11-21T10:18:01;8.43;;;3.42;;
61527;SDS011;47395;42.032;-8.634;2023-11-21T10:20:14;7.35;;;4.03;;
61527;SDS011;47395;42.032;-8.634;2023-11-21T10:22:16;7.38;;;3.00;;
61527;SDS011;47395;42.032;-8.634;2023-11-21T10:24:19;9.13;;;3.60;;
61527;SDS011;47395;42.032;-8.634;2023-11-21T10:26:20;7.65;;;3.85;;
61527;SDS011;47395;42.032;-8.634;2023-11-21T10:28:24;12.35;;;3.80;;
61527;SDS011;47395;42.032;-8.634;2023-11-21T10:30:27;13.05;;;3.40;;
61527;SDS011;47395;42.032;-8.634;2023-11-21T10:32:33;6.13;;;3.20;;
61527;SDS011;47395;42.032;-8.634;2023-11-21T10:34:34;12.25;;;3.78;;
61527;SDS011;47395;42.032;-8.634;2023-11-21T10:36:35;10.25;;;3.42;;
61527;SDS011;47395;42.032;-8.634;2023-11-21T10:38:45;8.15;;;3.45;;
61527;SDS011;47395;42.032;-8.634;2023-11-21T10:40:53;8.45;;;3.40;;
61527;SDS011;47395;42.032;-8.634;2023-11-21T10:42:55;12.18;;;3.38;;
61527;SDS011;47395;42.032;-8.634;2023-11-21T10:45:09;8.93;;;3.40;;
61527;SDS011;47395;42.032;-8.634;2023-11-21T10:47:16;9.95;;;3.42;;
61527;SDS011;47395;42.032;-8.634;2023-11-21T10:49:25;13.32;;;3.50;;
61527;SDS011;47395;42.032;-8.634;2023-11-21T10:51:27;8.45;;;4.55;;
61527;SDS011;47395;42.032;-8.634;2023-11-21T10:53:34;11.80;;;4.55;;
61527;SDS011;47395;42.032;-8.634;2023-11-21T10:55:35;11.45;;;4.53;;
61527;SDS011;47395;42.032;-8.634;2023-11-21T10:57:36;11.27;;;5.07;;
61527;SDS011;47395;42.032;-8.634;2023-11-21T10:59:37;7.38;;;5.30;;
61527;SDS011;47395;42.032;-8.634;2023-11-21T11:01:39;10.20;;;5.10;;
61527;SDS011;47395;42.032;-8.634;2023-11-21T11:03:42;9.60;;;4.25;;
61527;SDS011;47395;42.032;-8.634;2023-11-21T11:05:45;7.43;;;3.03;;
61527;SDS011;47395;42.032;-8.634;2023-11-21T11:07:52;7.93;;;3.08;;
61527;SDS011;47395;42.032;-8.634;2023-11-21T11:10:03;5.68;;;2.55;;
61527;SDS011;47395;42.032;-8.634;2023-11-21T11:12:05;8.82;;;3.80;;
61527;SDS011;47395;42.032;-8.634;2023-11-21T11:14:09;4.90;;;3.15;;
61527;SDS011;47395;42.032;-8.634;2023-11-21T11:16:14;11.50;;;3.60;;
61527;SDS011;47395;42.032;-8.634;2023-11-21T11:18:23;11.83;;;3.20;;
61527;SDS011;47395;42.032;-8.634;2023-11-21T11:20:29;10.00;;;3.55;;
61527;SDS011;47395;42.032;-8.634;2023-11-21T11:32:32;7.60;;;3.97;;
61527;SDS011;47395;42.032;-8.634;2023-11-21T11:34:50;6.78;;;3.63;;
61527;SDS011;47395;42.032;-8.634;2023-11-21T11:37:08;12.10;;;3.58;;
61527;SDS011;47395;42.032;-8.634;2023-11-21T11:39:28;13.80;;;4.05;;
61527;SDS011;47395;42.032;-8.634;2023-11-21T11:41:37;8.10;;;3.88;;
61527;SDS011;47395;42.032;-8.634;2023-11-21T11:43:39;13.63;;;4.32;;
61527;SDS011;47395;42.032;-8.634;2023-11-21T11:45:44;10.20;;;3.70;;
61527;SDS011;47395;42.032;-8.634;2023-11-21T11:47:56;5.53;;;3.20;;
61527;SDS011;47395;42.032;-8.634;2023-11-21T11:54:40;9.52;;;3.28;;
61527;SDS011;47395;42.032;-8.634;2023-11-21T11:56:48;4.97;;;2.70;;
61527;SDS011;47395;42.032;-8.634;2023-11-21T11:58:52;5.15;;;2.58;;
61527;SDS011;47395;42.032;-8.634;2023-11-21T12:00:54;3.88;;;2.45;;
61527;SDS011;47395;42.032;-8.634;2023-11-21T12:03:00;6.07;;;2.63;;
61527;SDS011;47395;42.032;-8.634;2023-11-21T12:05:08;6.38;;;2.47;;
61527;SDS011;47395;42.032;-8.634;2023-11-21T12:07:11;10.77;;;2.78;;
61527;SDS011;47395;42.032;-8.634;2023-11-21T12:09:18;7.93;;;3.08;;
61527;SDS011;47395;42.032;-8.634;2023-11-21T12:11:21;7.00;;;3.38;;
61527;SDS011;47395;42.032;-8.634;2023-11-21T12:13:31;8.82;;;3.10;;
61527;SDS011;47395;42.032;-8.634;2023-11-21T12:15:36;7.60;;;3.05;;
61527;SDS011;47395;42.032;-8.634;2023-11-21T12:17:42;8.85;;;3.47;;
61527;SDS011;47395;42.032;-8.634;2023-11-21T12:19:44;10.20;;;3.55;;
61527;SDS011;47395;42.032;-8.634;2023-11-21T12:21:45;9.15;;;3.13;;